Puerto Lumbreras, Spain
Current Conditions -  °F | °C
As of 4:00 PM on Friday 19 Dec 2014 (Local Time) from LELC Reporting Station
Clear Clear  
Wind Chill: 66°   Ceiling: Unl
Heat Index: 66°   Visibility: 6mi
Dew Point: 54°   Wind: 10mph
Humidity: 64%   Direction: 210°SSW
Pressure: 30.33"   Gusts: NA
Location:  37.56°N, 1.81°W
Report Text: LELC 191500Z 21009KT CAVOK 19/12 Q1027 NOSIG
Loading
Personal Weather Stations






























Interactive Weather Map New forecast layout! Learn more

10-Day Weather Forecast

Advertisements
Track Severe Weather on mobile